createdAt,value
2022-11-16T00:01:14.202Z,100.00
2022-11-16T00:03:42.216Z,100.00
2022-11-16T00:06:10.963Z,100.00
2022-11-16T00:08:39.430Z,100.00
2022-11-16T00:11:08.585Z,100.00
2022-11-16T00:13:37.123Z,99.96
2022-11-16T00:16:06.357Z,98.98
2022-11-16T00:18:35.960Z,99.96
2022-11-16T00:21:05.781Z,100.00
2022-11-16T00:23:35.867Z,99.99
2022-11-16T00:26:05.039Z,98.67
2022-11-16T00:28:33.190Z,97.64
2022-11-16T00:31:01.024Z,99.56
2022-11-16T00:33:28.932Z,99.22
2022-11-16T00:35:58.011Z,99.45
2022-11-16T00:38:25.446Z,100.00
2022-11-16T00:40:52.893Z,100.00
2022-11-16T00:43:20.401Z,100.00
2022-11-16T00:45:47.835Z,99.38
2022-11-16T00:48:15.256Z,99.90
2022-11-16T00:50:42.717Z,99.40
2022-11-16T00:53:14.491Z,98.17
2022-11-16T00:55:41.965Z,100.00
2022-11-16T00:58:09.401Z,98.94
2022-11-16T01:00:37.228Z,98.06
2022-11-16T01:03:05.152Z,99.76
2022-11-16T01:05:33.167Z,99.08
2022-11-16T01:08:01.101Z,98.12
2022-11-16T01:10:30.387Z,97.24
2022-11-16T01:12:57.102Z,97.03
2022-11-16T01:15:26.898Z,96.77
2022-11-16T01:17:56.163Z,98.54
2022-11-16T01:20:26.147Z,100.00
2022-11-16T01:22:54.704Z,99.56
2022-11-16T01:25:22.611Z,99.30
2022-11-16T01:27:51.411Z,100.00
2022-11-16T01:30:19.048Z,100.00
2022-11-16T01:32:46.571Z,100.00
2022-11-16T01:35:17.856Z,98.44
2022-11-16T01:37:45.609Z,100.00
2022-11-16T01:40:14.287Z,100.00
2022-11-16T01:42:42.183Z,100.00
2022-11-16T01:45:22.440Z,99.61
2022-11-16T01:47:50.068Z,98.93
2022-11-16T01:50:19.784Z,98.82
2022-11-16T01:52:55.462Z,99.18
2022-11-16T01:55:24.063Z,97.76
2022-11-16T01:57:51.912Z,98.72
2022-11-16T02:00:20.872Z,99.20
2022-11-16T02:02:48.291Z,99.71
2022-11-16T02:05:19.513Z,98.76
2022-11-16T02:08:29.207Z,99.34
2022-11-16T02:11:07.683Z,100.00
2022-11-16T02:13:46.600Z,99.39
2022-11-16T02:16:28.063Z,100.00
2022-11-16T02:19:06.548Z,100.00
2022-11-16T02:21:42.060Z,99.63
2022-11-16T02:24:37.480Z,100.00
2022-11-16T02:27:30.744Z,98.84
2022-11-16T02:29:59.903Z,100.00
2022-11-16T02:32:32.439Z,100.00
2022-11-16T02:35:07.260Z,100.00
2022-11-16T02:37:38.978Z,100.00
2022-11-16T02:40:12.163Z,100.00
2022-11-16T02:42:44.827Z,100.00
2022-11-16T02:45:19.237Z,100.00
2022-11-16T02:47:49.072Z,100.00
2022-11-16T02:50:21.233Z,100.00
2022-11-16T02:52:48.701Z,100.00
2022-11-16T02:55:16.534Z,100.00
2022-11-16T02:57:49.937Z,99.74
2022-11-16T03:00:23.733Z,99.37
2022-11-16T03:02:59.458Z,98.70
2022-11-16T03:05:33.409Z,100.00
2022-11-16T03:08:12.230Z,100.00
2022-11-16T03:10:59.969Z,100.00
2022-11-16T03:13:31.132Z,100.00
2022-11-16T03:16:04.043Z,100.00
2022-11-16T03:18:32.009Z,100.00
2022-11-16T03:21:06.987Z,100.00
2022-11-16T03:23:34.659Z,100.00
2022-11-16T03:26:07.547Z,99.33
2022-11-16T03:28:37.919Z,100.00
2022-11-16T03:31:12.137Z,100.00
2022-11-16T03:33:44.555Z,99.76
2022-11-16T03:36:17.524Z,100.00
2022-11-16T03:38:48.188Z,100.00
2022-11-16T03:41:16.179Z,100.00
2022-11-16T03:43:45.355Z,100.00
2022-11-16T03:46:15.724Z,100.00
2022-11-16T03:48:43.484Z,100.00
2022-11-16T03:51:12.152Z,100.00
2022-11-16T03:53:39.660Z,100.00
2022-11-16T03:56:07.558Z,100.00
2022-11-16T03:58:35.138Z,100.00
2022-11-16T04:01:04.129Z,100.00
2022-11-16T04:03:33.055Z,100.00
2022-11-16T04:06:18.295Z,100.00
2022-11-16T04:09:03.540Z,100.00
2022-11-16T04:11:48.723Z,100.00
2022-11-16T04:14:38.529Z,100.00
2022-11-16T04:17:29.205Z,100.00
2022-11-16T04:20:15.935Z,100.00
2022-11-16T04:23:06.273Z,100.00
2022-11-16T04:25:36.576Z,100.00
2022-11-16T04:28:16.467Z,100.00
2022-11-16T04:31:03.987Z,100.00
2022-11-16T04:33:50.299Z,100.00
2022-11-16T04:36:36.983Z,100.00
2022-11-16T04:39:05.127Z,100.00
2022-11-16T04:41:50.869Z,100.00
2022-11-16T04:44:18.589Z,100.00
2022-11-16T04:47:04.078Z,100.00
2022-11-16T04:49:31.510Z,100.00
2022-11-16T04:52:00.544Z,100.00
2022-11-16T04:54:27.975Z,100.00
2022-11-16T04:56:55.431Z,100.00
2022-11-16T04:59:22.851Z,100.00
2022-11-16T05:02:07.848Z,100.00
2022-11-16T05:04:35.343Z,100.00
2022-11-16T05:07:10.473Z,100.00
2022-11-16T05:09:41.330Z,100.00
2022-11-16T05:12:09.107Z,100.00
2022-11-16T05:14:36.794Z,100.00
2022-11-16T05:17:04.669Z,100.00
2022-11-16T05:19:49.748Z,100.00
2022-11-16T05:22:18.510Z,100.00
2022-11-16T05:24:45.836Z,100.00
2022-11-16T05:27:14.124Z,100.00
2022-11-16T05:29:42.420Z,100.00
2022-11-16T05:32:11.505Z,100.00
2022-11-16T05:34:39.848Z,100.00
2022-11-16T05:37:07.418Z,100.00
2022-11-16T05:39:36.490Z,100.00
2022-11-16T05:42:05.263Z,100.00
2022-11-16T05:44:32.669Z,100.00
2022-11-16T05:47:00.743Z,100.00
2022-11-16T05:49:28.350Z,100.00
2022-11-16T05:51:55.901Z,100.00
2022-11-16T05:54:25.811Z,100.00
2022-11-16T05:56:55.572Z,100.00
2022-11-16T05:59:24.258Z,100.00
2022-11-16T06:01:52.047Z,100.00
2022-11-16T06:04:24.462Z,100.00
2022-11-16T06:06:52.860Z,100.00
2022-11-16T06:09:20.383Z,100.00
2022-11-16T06:11:47.841Z,100.00
2022-11-16T06:14:16.676Z,100.00
2022-11-16T06:16:43.964Z,100.00
2022-11-16T06:19:11.315Z,100.00
2022-11-16T06:21:38.760Z,100.00
2022-11-16T06:24:08.821Z,100.00
2022-11-16T06:26:36.959Z,100.00
2022-11-16T06:29:04.541Z,100.00
2022-11-16T06:31:33.371Z,100.00
2022-11-16T06:34:00.689Z,100.00
2022-11-16T06:36:28.110Z,100.00
2022-11-16T06:38:55.608Z,100.00
2022-11-16T06:41:23.292Z,100.00
2022-11-16T06:43:50.742Z,100.00
2022-11-16T06:46:18.223Z,100.00
2022-11-16T06:48:47.020Z,100.00
2022-11-16T06:51:14.340Z,100.00
2022-11-16T06:53:41.679Z,100.00
2022-11-16T06:56:10.028Z,100.00
2022-11-16T06:58:37.775Z,100.00
2022-11-16T07:01:08.902Z,100.00
2022-11-16T07:03:36.455Z,100.00
2022-11-16T07:06:08.733Z,100.00
2022-11-16T07:08:36.572Z,100.00
2022-11-16T07:11:04.947Z,100.00
2022-11-16T07:13:33.287Z,100.00
2022-11-16T07:16:04.539Z,100.00
2022-11-16T07:18:34.831Z,100.00
2022-11-16T07:21:07.854Z,100.00
2022-11-16T07:23:35.951Z,100.00
2022-11-16T07:26:04.954Z,100.00
2022-11-16T07:28:33.394Z,100.00
2022-11-16T07:31:02.477Z,100.00
2022-11-16T07:33:29.814Z,100.00
2022-11-16T07:36:01.284Z,100.00
2022-11-16T07:38:30.551Z,100.00
2022-11-16T07:41:00.914Z,100.00
2022-11-16T07:43:29.431Z,100.00
2022-11-16T07:46:20.034Z,100.00
2022-11-16T07:48:46.374Z,100.00
2022-11-16T07:51:16.620Z,100.00
2022-11-16T07:53:45.534Z,100.00
2022-11-16T07:56:13.832Z,100.00
2022-11-16T07:58:41.479Z,100.00
2022-11-16T08:01:11.671Z,100.00
2022-11-16T08:03:40.723Z,100.00
2022-11-16T08:06:12.704Z,100.00
2022-11-16T08:08:40.455Z,100.00
2022-11-16T08:11:11.911Z,100.00
2022-11-16T08:13:40.865Z,100.00
2022-11-16T08:16:11.205Z,100.00
2022-11-16T08:18:39.425Z,100.00
2022-11-16T08:21:08.656Z,100.00
2022-11-16T08:23:36.666Z,100.00
2022-11-16T08:26:06.336Z,100.00
2022-11-16T08:28:35.456Z,100.00
2022-11-16T08:31:08.852Z,100.00
2022-11-16T08:33:36.313Z,100.00
2022-11-16T08:36:09.482Z,100.00
2022-11-16T08:38:40.458Z,100.00
2022-11-16T08:41:08.378Z,100.00
2022-11-16T08:43:39.374Z,100.00
2022-11-16T08:46:07.268Z,100.00
2022-11-16T08:48:35.120Z,100.00
2022-11-16T08:51:20.492Z,100.00
2022-11-16T08:53:49.286Z,100.00
2022-11-16T08:56:19.272Z,100.00
2022-11-16T08:58:51.293Z,100.00
2022-11-16T09:01:24.311Z,100.00
2022-11-16T09:03:53.237Z,100.00
2022-11-16T09:06:20.817Z,100.00
2022-11-16T09:08:49.440Z,100.00
2022-11-16T09:11:19.431Z,100.00
2022-11-16T09:13:49.523Z,100.00
2022-11-16T09:16:17.643Z,100.00
2022-11-16T09:18:46.286Z,100.00
2022-11-16T09:21:17.076Z,100.00
2022-11-16T09:23:44.500Z,100.00
2022-11-16T09:26:13.626Z,100.00
2022-11-16T09:28:41.155Z,100.00
2022-11-16T09:31:10.225Z,100.00
2022-11-16T09:33:38.239Z,100.00
2022-11-16T09:36:07.764Z,100.00
2022-11-16T09:38:55.666Z,100.00
2022-11-16T09:41:39.709Z,100.00
2022-11-16T09:44:15.664Z,100.00
2022-11-16T09:46:49.386Z,100.00
2022-11-16T09:49:22.126Z,100.00
2022-11-16T09:51:52.347Z,100.00
2022-11-16T09:54:23.695Z,100.00
2022-11-16T09:56:54.984Z,100.00
2022-11-16T09:59:25.794Z,100.00
2022-11-16T10:01:58.948Z,100.00
2022-11-16T10:04:38.809Z,100.00
2022-11-16T10:07:13.145Z,100.00
2022-11-16T10:09:40.922Z,100.00
2022-11-16T10:12:15.172Z,100.00
2022-11-16T10:15:15.111Z,100.00
2022-11-16T10:18:04.312Z,100.00
2022-11-16T10:21:01.979Z,100.00
2022-11-16T10:23:42.828Z,100.00
2022-11-16T10:26:22.050Z,100.00
2022-11-16T10:29:00.872Z,100.00
2022-11-16T10:31:45.751Z,100.00
2022-11-16T10:34:20.895Z,100.00
2022-11-16T10:36:48.395Z,100.00
2022-11-16T10:39:18.738Z,100.00
2022-11-16T10:41:49.380Z,100.00
2022-11-16T10:44:22.823Z,100.00
2022-11-16T10:47:01.121Z,100.00
2022-11-16T10:49:40.799Z,100.00
2022-11-16T10:52:08.416Z,100.00
2022-11-16T10:54:38.910Z,100.00
2022-11-16T10:57:13.962Z,100.00
2022-11-16T10:59:43.718Z,100.00
2022-11-16T11:02:31.137Z,100.00
2022-11-16T11:05:05.460Z,100.00
2022-11-16T11:07:35.254Z,100.00
2022-11-16T11:10:03.068Z,100.00
2022-11-16T11:12:39.648Z,100.00
2022-11-16T11:15:25.816Z,100.00
2022-11-16T11:18:13.253Z,100.00
2022-11-16T11:20:45.254Z,100.00
2022-11-16T11:23:16.766Z,100.00
2022-11-16T11:25:52.090Z,100.00
2022-11-16T11:28:23.791Z,100.00
2022-11-16T11:31:01.507Z,100.00
2022-11-16T11:33:32.306Z,100.00
2022-11-16T11:36:05.755Z,100.00
2022-11-16T11:38:33.803Z,100.00
2022-11-16T11:41:05.038Z,100.00
2022-11-16T11:43:34.930Z,100.00
2022-11-16T11:46:13.059Z,100.00
2022-11-16T11:48:50.323Z,100.00
2022-11-16T11:51:26.348Z,100.00
2022-11-16T11:53:56.931Z,100.00
2022-11-16T11:56:25.697Z,100.00
2022-11-16T11:58:53.987Z,100.00
2022-11-16T12:01:35.964Z,100.00
2022-11-16T12:04:42.045Z,100.00
2022-11-16T12:07:22.713Z,100.00
2022-11-16T12:09:57.514Z,100.00
2022-11-16T12:12:29.687Z,100.00
2022-11-16T12:15:08.999Z,100.00
2022-11-16T12:17:49.107Z,100.00
2022-11-16T12:20:29.229Z,100.00
2022-11-16T12:23:16.876Z,100.00
2022-11-16T12:25:55.625Z,100.00
2022-11-16T12:28:38.688Z,100.00
2022-11-16T12:31:27.215Z,100.00
2022-11-16T12:34:01.515Z,100.00
2022-11-16T12:36:38.346Z,100.00
2022-11-16T12:39:17.246Z,100.00
2022-11-16T12:42:08.701Z,100.00
2022-11-16T12:44:55.320Z,100.00
2022-11-16T12:47:34.245Z,100.00
2022-11-16T12:50:09.492Z,100.00
2022-11-16T12:53:07.304Z,100.00
2022-11-16T12:55:42.222Z,100.00
2022-11-16T12:58:20.282Z,100.00
2022-11-16T13:00:59.486Z,100.00
2022-11-16T13:03:34.436Z,100.00
2022-11-16T13:06:05.581Z,100.00
2022-11-16T13:08:38.838Z,100.00
2022-11-16T13:11:15.212Z,100.00
2022-11-16T13:13:51.362Z,99.10
2022-11-16T13:16:21.831Z,100.00
2022-11-16T13:18:49.487Z,100.00
2022-11-16T13:21:27.063Z,100.00
2022-11-16T13:24:06.491Z,100.00
2022-11-16T13:26:42.515Z,100.00
2022-11-16T13:29:19.658Z,99.31
2022-11-16T13:31:53.704Z,96.87
2022-11-16T13:34:25.134Z,97.90
2022-11-16T13:36:52.654Z,99.58
2022-11-16T13:39:22.818Z,98.42
2022-11-16T13:42:06.272Z,98.98
2022-11-16T13:44:34.500Z,98.52
2022-11-16T13:47:05.098Z,98.54
2022-11-16T13:49:38.937Z,100.00
2022-11-16T13:52:23.065Z,95.26
2022-11-16T13:54:53.686Z,97.29
2022-11-16T13:57:26.060Z,97.64
2022-11-16T14:00:09.307Z,96.01
2022-11-16T14:02:38.719Z,97.61
2022-11-16T14:05:15.695Z,96.90
2022-11-16T14:07:46.335Z,96.99
2022-11-16T14:10:54.611Z,97.12
2022-11-16T14:13:40.528Z,95.03
2022-11-16T14:16:54.036Z,97.20
2022-11-16T14:19:55.289Z,96.30
2022-11-16T14:22:51.559Z,96.30
2022-11-16T14:25:29.936Z,97.20
2022-11-16T14:28:09.971Z,96.28
2022-11-16T14:30:52.133Z,99.07
2022-11-16T14:33:30.317Z,98.38
2022-11-16T14:35:58.224Z,98.79
2022-11-16T14:38:30.926Z,99.12
2022-11-16T14:41:00.347Z,99.71
2022-11-16T14:43:30.947Z,98.52
2022-11-16T14:46:04.234Z,100.00
2022-11-16T14:48:32.499Z,99.76
2022-11-16T14:51:05.344Z,100.00
2022-11-16T14:53:36.101Z,100.00
2022-11-16T14:56:11.858Z,100.00
2022-11-16T14:58:40.241Z,100.00
2022-11-16T15:01:15.142Z,100.00
2022-11-16T15:03:52.485Z,100.00
2022-11-16T15:06:20.239Z,100.00
2022-11-16T15:08:53.115Z,100.00
2022-11-16T15:11:48.019Z,100.00
2022-11-16T15:14:20.061Z,100.00
2022-11-16T15:16:54.292Z,100.00
2022-11-16T15:19:22.540Z,100.00
2022-11-16T15:21:54.898Z,100.00
2022-11-16T15:24:30.384Z,100.00
2022-11-16T15:27:10.032Z,100.00
2022-11-16T15:29:37.961Z,100.00
2022-11-16T15:32:07.863Z,100.00
2022-11-16T15:34:35.348Z,100.00
2022-11-16T15:37:02.804Z,100.00
2022-11-16T15:39:35.895Z,100.00
2022-11-16T15:42:04.458Z,100.00
2022-11-16T15:44:32.772Z,100.00
2022-11-16T15:47:00.591Z,100.00
2022-11-16T15:49:32.270Z,100.00
2022-11-16T15:52:00.329Z,100.00
2022-11-16T15:54:29.687Z,100.00
2022-11-16T15:57:07.700Z,100.00
2022-11-16T15:59:37.975Z,100.00
2022-11-16T16:02:05.837Z,100.00
2022-11-16T16:04:34.662Z,100.00
2022-11-16T16:07:02.229Z,100.00
2022-11-16T16:09:32.856Z,100.00
2022-11-16T16:12:18.009Z,100.00
2022-11-16T16:14:46.432Z,100.00
2022-11-16T16:17:24.160Z,100.00
2022-11-16T16:19:57.384Z,100.00
2022-11-16T16:22:27.075Z,100.00
2022-11-16T16:24:54.816Z,100.00
2022-11-16T16:27:23.588Z,100.00
2022-11-16T16:29:51.762Z,100.00
2022-11-16T16:32:25.079Z,100.00
2022-11-16T16:34:53.267Z,100.00
2022-11-16T16:37:23.228Z,99.86
2022-11-16T16:39:50.663Z,100.00
2022-11-16T16:42:18.696Z,100.00
2022-11-16T16:44:48.035Z,100.00
2022-11-16T16:47:16.396Z,100.00
2022-11-16T16:49:44.495Z,99.81
2022-11-16T16:52:13.287Z,100.00
2022-11-16T16:54:42.419Z,100.00
2022-11-16T16:57:14.052Z,100.00
2022-11-16T16:59:41.480Z,100.00
2022-11-16T17:02:11.584Z,98.62
2022-11-16T17:04:39.260Z,99.40
2022-11-16T17:07:07.163Z,100.00
2022-11-16T17:09:34.644Z,99.92
2022-11-16T17:12:03.440Z,99.73
2022-11-16T17:14:30.775Z,99.33
2022-11-16T17:16:58.231Z,98.47
2022-11-16T17:19:25.686Z,98.63
2022-11-16T17:21:53.362Z,99.14
2022-11-16T17:24:20.884Z,99.20
2022-11-16T17:26:48.709Z,99.59
2022-11-16T17:29:17.559Z,99.73
2022-11-16T17:31:47.442Z,98.89
2022-11-16T17:34:14.922Z,98.42
2022-11-16T17:36:42.518Z,99.23
2022-11-16T17:39:09.982Z,98.64
2022-11-16T17:41:38.105Z,98.58
2022-11-16T17:44:06.279Z,98.09
2022-11-16T17:46:35.716Z,96.17
2022-11-16T17:49:03.487Z,98.00
2022-11-16T17:51:30.969Z,98.34
2022-11-16T17:53:58.397Z,97.05
2022-11-16T17:56:27.507Z,98.15
2022-11-16T17:58:55.865Z,97.48
2022-11-16T18:01:23.799Z,99.56
2022-11-16T18:03:52.765Z,99.87
2022-11-16T18:06:22.348Z,99.17
2022-11-16T18:08:50.239Z,100.00
2022-11-16T18:11:19.714Z,100.00
2022-11-16T18:13:48.146Z,100.00
2022-11-16T18:16:17.483Z,100.00
2022-11-16T18:18:45.908Z,100.00
2022-11-16T18:21:20.488Z,100.00
2022-11-16T18:23:48.752Z,100.00
2022-11-16T18:26:18.639Z,100.00
2022-11-16T18:28:46.502Z,100.00
2022-11-16T18:31:17.375Z,100.00
2022-11-16T18:33:45.286Z,100.00
2022-11-16T18:36:15.119Z,100.00
2022-11-16T18:38:42.600Z,100.00
2022-11-16T18:41:19.386Z,100.00
2022-11-16T18:43:51.941Z,100.00
2022-11-16T18:46:19.950Z,100.00
2022-11-16T18:48:47.585Z,100.00
2022-11-16T18:51:17.714Z,100.00
2022-11-16T18:53:45.458Z,98.88
2022-11-16T18:56:13.235Z,98.95
2022-11-16T18:58:50.914Z,98.37
2022-11-16T19:01:21.641Z,99.17
2022-11-16T19:03:49.294Z,100.00
2022-11-16T19:06:18.851Z,100.00
2022-11-16T19:08:53.664Z,100.00
2022-11-16T19:11:23.663Z,100.00
2022-11-16T19:13:53.840Z,100.00
2022-11-16T19:16:21.621Z,100.00
2022-11-16T19:18:49.046Z,100.00
2022-11-16T19:21:19.253Z,100.00
2022-11-16T19:23:48.380Z,100.00
2022-11-16T19:26:17.886Z,100.00
2022-11-16T19:28:46.858Z,99.74
2022-11-16T19:31:16.757Z,99.51
2022-11-16T19:33:45.242Z,100.00
2022-11-16T19:36:14.429Z,99.36
2022-11-16T19:38:43.960Z,99.33
2022-11-16T19:41:13.050Z,99.24
2022-11-16T19:43:40.830Z,98.98
2022-11-16T19:46:09.898Z,98.93
2022-11-16T19:48:37.766Z,99.12
2022-11-16T19:51:06.763Z,100.00
2022-11-16T19:53:34.638Z,100.00
2022-11-16T19:56:04.184Z,100.00
2022-11-16T19:58:32.002Z,100.00
2022-11-16T20:01:03.803Z,100.00
2022-11-16T20:03:31.918Z,99.56
2022-11-16T20:06:10.515Z,99.17
2022-11-16T20:08:38.072Z,99.23
2022-11-16T20:11:14.426Z,99.19
2022-11-16T20:13:42.869Z,98.79
2022-11-16T20:16:12.274Z,98.65
2022-11-16T20:18:40.945Z,98.94
2022-11-16T20:21:11.265Z,98.68
2022-11-16T20:23:38.692Z,98.62
2022-11-16T20:26:06.903Z,98.05
2022-11-16T20:28:36.471Z,98.94
2022-11-16T20:31:05.212Z,97.68
2022-11-16T20:33:33.851Z,98.31
2022-11-16T20:36:02.763Z,98.21
2022-11-16T20:38:30.396Z,98.38
2022-11-16T20:40:57.853Z,98.27
2022-11-16T20:43:25.297Z,98.65
2022-11-16T20:45:54.718Z,98.44
2022-11-16T20:48:22.211Z,98.45
2022-11-16T20:50:53.744Z,98.39
2022-11-16T20:53:22.162Z,100.00
2022-11-16T20:55:50.133Z,100.00
2022-11-16T20:58:22.556Z,100.00
2022-11-16T21:00:50.881Z,99.84
2022-11-16T21:03:19.692Z,99.23
2022-11-16T21:05:50.728Z,99.01
2022-11-16T21:08:18.389Z,99.32
2022-11-16T21:10:48.106Z,99.23
2022-11-16T21:13:31.594Z,98.83
2022-11-16T21:16:01.092Z,99.14
2022-11-16T21:18:30.946Z,98.97
2022-11-16T21:20:59.754Z,99.89
2022-11-16T21:23:28.647Z,99.16
2022-11-16T21:25:56.445Z,98.95
2022-11-16T21:28:25.599Z,98.95
2022-11-16T21:30:57.595Z,100.00
2022-11-16T21:33:25.536Z,100.00
2022-11-16T21:35:54.815Z,100.00
2022-11-16T21:38:23.487Z,100.00
2022-11-16T21:40:51.105Z,100.00
2022-11-16T21:43:18.636Z,100.00
2022-11-16T21:45:47.279Z,99.24
2022-11-16T21:48:15.171Z,100.00
2022-11-16T21:50:42.670Z,100.00
2022-11-16T21:53:11.747Z,100.00
2022-11-16T21:55:39.171Z,99.58
2022-11-16T21:58:06.591Z,99.18
2022-11-16T22:00:34.027Z,99.10
2022-11-16T22:03:01.447Z,98.89
2022-11-16T22:05:46.761Z,98.79
2022-11-16T22:08:15.529Z,98.92
2022-11-16T22:10:43.128Z,100.00
2022-11-16T22:13:10.572Z,99.68
2022-11-16T22:15:38.346Z,100.00
2022-11-16T22:18:06.104Z,100.00
2022-11-16T22:20:33.547Z,100.00
2022-11-16T22:23:00.973Z,100.00
2022-11-16T22:25:29.967Z,100.00
2022-11-16T22:30:51.193Z,100.00
2022-11-16T22:33:19.292Z,100.00
2022-11-16T22:35:47.959Z,100.00
2022-11-16T22:38:15.439Z,100.00
2022-11-16T22:40:49.552Z,100.00
2022-11-16T22:43:16.975Z,100.00
2022-11-16T22:45:44.383Z,100.00
2022-11-16T22:48:11.867Z,100.00
2022-11-16T22:50:39.319Z,100.00
2022-11-16T22:53:07.783Z,100.00
2022-11-16T22:55:36.594Z,100.00
2022-11-16T22:58:05.801Z,100.00
2022-11-16T23:00:38.956Z,100.00
2022-11-16T23:03:09.373Z,100.00
2022-11-16T23:05:36.823Z,100.00
2022-11-16T23:08:04.291Z,100.00
2022-11-16T23:10:51.721Z,100.00
2022-11-16T23:13:43.463Z,100.00
2022-11-16T23:16:10.936Z,100.00
2022-11-16T23:18:38.356Z,100.00
2022-11-16T23:21:23.496Z,100.00
2022-11-16T23:24:20.237Z,100.00
2022-11-16T23:27:05.326Z,100.00
2022-11-16T23:29:34.141Z,100.00
2022-11-16T23:32:01.424Z,100.00
2022-11-16T23:34:28.740Z,100.00
2022-11-16T23:36:56.039Z,100.00
2022-11-16T23:39:23.339Z,100.00
2022-11-16T23:42:08.476Z,100.00
2022-11-16T23:44:37.235Z,100.00
2022-11-16T23:47:04.572Z,100.00
2022-11-16T23:49:31.885Z,100.00
2022-11-16T23:51:59.175Z,100.00
2022-11-16T23:54:26.623Z,100.00
2022-11-16T23:56:54.104Z,100.00
2022-11-16T23:59:21.549Z,100.00
